createdAt,value
2022-12-01T00:01:35.348Z,0.90
2022-12-01T00:04:03.127Z,0.91
2022-12-01T00:06:31.923Z,0.88
2022-12-01T00:09:20.293Z,0.83
2022-12-01T00:11:50.097Z,0.79
2022-12-01T00:14:17.933Z,0.78
2022-12-01T00:16:46.068Z,0.80
2022-12-01T00:19:15.127Z,0.83
2022-12-01T00:21:42.984Z,0.85
2022-12-01T00:24:12.104Z,0.87
2022-12-01T00:26:40.332Z,0.85
2022-12-01T00:29:09.096Z,0.84
2022-12-01T00:31:37.630Z,0.77
2022-12-01T00:34:11.070Z,0.73
2022-12-01T00:36:39.469Z,0.69
2022-12-01T00:39:09.777Z,0.69
2022-12-01T00:41:37.519Z,0.65
2022-12-01T00:44:05.538Z,0.60
2022-12-01T00:46:33.639Z,0.58
2022-12-01T00:49:01.467Z,0.57
2022-12-01T00:51:31.092Z,0.55
2022-12-01T00:53:59.514Z,0.53
2022-12-01T00:56:27.238Z,0.51
2022-12-01T00:58:55.073Z,0.53
2022-12-01T01:01:50.001Z,0.56
2022-12-01T01:04:21.778Z,0.59
2022-12-01T01:06:51.509Z,0.59
2022-12-01T01:09:22.328Z,0.58
2022-12-01T01:11:53.350Z,0.56
2022-12-01T01:14:22.270Z,0.56
2022-12-01T01:16:51.652Z,0.55
2022-12-01T01:19:20.707Z,0.54
2022-12-01T01:21:52.450Z,0.52
2022-12-01T01:24:25.122Z,0.52
2022-12-01T01:26:56.567Z,0.56
2022-12-01T01:29:26.442Z,0.59
2022-12-01T01:31:54.477Z,0.60
2022-12-01T01:34:22.303Z,0.59
2022-12-01T01:36:50.248Z,0.58
2022-12-01T01:39:17.981Z,0.58
2022-12-01T01:41:45.693Z,0.58
2022-12-01T01:44:47.014Z,0.58
2022-12-01T01:47:17.350Z,0.58
2022-12-01T01:49:45.172Z,0.57
2022-12-01T01:52:14.507Z,0.57
2022-12-01T01:54:46.522Z,0.51
2022-12-01T01:57:20.695Z,0.49
2022-12-01T01:59:54.436Z,0.47
2022-12-01T02:02:22.187Z,0.45
2022-12-01T02:04:54.760Z,0.46
2022-12-01T02:07:22.736Z,0.48
2022-12-01T02:09:50.596Z,0.49
2022-12-01T02:12:30.758Z,0.51
2022-12-01T02:15:20.231Z,0.55
2022-12-01T02:18:07.069Z,0.59
2022-12-01T02:21:02.586Z,0.64
2022-12-01T02:23:42.781Z,0.68
2022-12-01T02:26:31.883Z,0.68
2022-12-01T02:29:38.932Z,0.69
2022-12-01T02:32:28.882Z,0.73
2022-12-01T02:35:05.776Z,0.78
2022-12-01T02:37:47.969Z,0.82
2022-12-01T02:40:42.560Z,0.85
2022-12-01T02:43:19.572Z,0.87
2022-12-01T02:45:58.640Z,0.86
2022-12-01T02:48:38.684Z,0.87
2022-12-01T02:51:12.775Z,0.89
2022-12-01T02:53:40.994Z,0.93
2022-12-01T02:56:12.656Z,0.97
2022-12-01T02:58:40.408Z,0.98
2022-12-01T03:02:05.877Z,1.00
2022-12-01T03:04:46.249Z,1.00
2022-12-01T03:07:27.110Z,1.01
2022-12-01T03:10:26.324Z,1.04
2022-12-01T03:13:05.556Z,1.06
2022-12-01T03:15:59.754Z,1.00
2022-12-01T03:18:39.910Z,0.92
2022-12-01T03:21:15.316Z,0.89
2022-12-01T03:23:48.524Z,0.86
2022-12-01T03:26:21.450Z,0.85
2022-12-01T03:28:54.598Z,0.87
2022-12-01T03:31:32.110Z,0.92
2022-12-01T03:34:06.742Z,0.94
2022-12-01T03:36:43.160Z,0.99
2022-12-01T03:39:20.714Z,1.00
2022-12-01T03:42:04.657Z,1.01
2022-12-01T03:44:44.043Z,1.02
2022-12-01T03:51:04.310Z,1.03
2022-12-01T03:53:43.408Z,1.02
2022-12-01T03:56:13.665Z,1.01
2022-12-01T03:58:45.576Z,1.01
2022-12-01T04:01:13.480Z,1.02
2022-12-01T04:03:41.343Z,1.03
2022-12-01T04:06:09.234Z,1.02
2022-12-01T04:08:37.606Z,1.02
2022-12-01T04:11:30.947Z,1.06
2022-12-01T04:14:00.499Z,1.13
2022-12-01T04:16:28.297Z,1.18
2022-12-01T04:18:56.052Z,1.25
2022-12-01T04:21:24.043Z,1.29
2022-12-01T04:24:00.904Z,1.34
2022-12-01T04:26:34.132Z,1.37
2022-12-01T04:29:05.548Z,1.39
2022-12-01T04:31:33.702Z,1.40
2022-12-01T04:34:01.884Z,1.37
2022-12-01T04:36:32.140Z,1.34
2022-12-01T04:39:00.183Z,1.31
2022-12-01T04:41:28.061Z,1.28
2022-12-01T04:43:56.481Z,1.26
2022-12-01T04:46:24.756Z,1.27
2022-12-01T04:48:52.485Z,1.26
2022-12-01T04:51:21.464Z,1.27
2022-12-01T04:53:50.634Z,1.27
2022-12-01T04:56:18.751Z,1.27
2022-12-01T04:58:46.578Z,1.29
2022-12-01T05:01:17.254Z,1.27
2022-12-01T05:03:49.535Z,1.29
2022-12-01T05:06:20.785Z,1.32
2022-12-01T05:08:49.181Z,1.34
2022-12-01T05:11:18.470Z,1.36
2022-12-01T05:13:47.822Z,1.37
2022-12-01T05:16:18.082Z,1.34
2022-12-01T05:18:50.837Z,1.31
2022-12-01T05:21:18.730Z,1.33
2022-12-01T05:23:46.649Z,1.31
2022-12-01T05:26:14.334Z,1.29
2022-12-01T05:28:42.129Z,1.30
2022-12-01T05:31:09.905Z,1.30
2022-12-01T05:33:37.855Z,1.30
2022-12-01T05:36:05.905Z,1.30
2022-12-01T05:38:33.637Z,1.31
2022-12-01T05:41:01.723Z,1.33
2022-12-01T05:43:29.847Z,1.33
2022-12-01T05:45:58.306Z,1.36
2022-12-01T05:48:26.184Z,1.36
2022-12-01T05:50:54.013Z,1.38
2022-12-01T05:53:21.897Z,1.40
2022-12-01T05:55:54.431Z,1.40
2022-12-01T05:58:22.709Z,1.42
2022-12-01T06:00:50.411Z,1.41
2022-12-01T06:03:18.328Z,1.42
2022-12-01T06:05:46.025Z,1.44
2022-12-01T06:08:13.722Z,1.47
2022-12-01T06:10:41.675Z,1.51
2022-12-01T06:13:09.346Z,1.55
2022-12-01T06:15:37.434Z,1.61
2022-12-01T06:18:05.297Z,1.66
2022-12-01T06:20:33.089Z,1.69
2022-12-01T06:23:00.990Z,1.71
2022-12-01T06:25:28.787Z,1.74
2022-12-01T06:27:59.745Z,1.73
2022-12-01T06:30:27.490Z,1.74
2022-12-01T06:32:55.346Z,1.72
2022-12-01T06:35:23.104Z,1.73
2022-12-01T06:37:53.330Z,1.75
2022-12-01T06:40:21.126Z,1.74
2022-12-01T06:42:49.094Z,1.73
2022-12-01T06:45:16.977Z,1.74
2022-12-01T06:47:45.021Z,1.77
2022-12-01T06:50:12.762Z,1.81
2022-12-01T06:52:40.502Z,1.85
2022-12-01T06:55:08.674Z,1.87
2022-12-01T06:57:36.376Z,1.95
2022-12-01T07:00:05.135Z,2.01
2022-12-01T07:02:33.153Z,2.08
2022-12-01T07:05:00.913Z,2.14
2022-12-01T07:07:28.690Z,2.19
2022-12-01T07:09:56.709Z,2.24
2022-12-01T07:12:24.496Z,2.29
2022-12-01T07:14:52.286Z,2.31
2022-12-01T07:17:20.296Z,2.33
2022-12-01T07:19:48.364Z,2.35
2022-12-01T07:22:16.426Z,2.33
2022-12-01T07:24:44.239Z,2.30
2022-12-01T07:27:11.934Z,2.27
2022-12-01T07:29:39.651Z,2.26
2022-12-01T07:32:07.702Z,2.24
2022-12-01T07:34:35.426Z,2.24
2022-12-01T07:37:03.285Z,2.20
2022-12-01T07:39:31.101Z,2.15
2022-12-01T07:41:58.938Z,2.11
2022-12-01T07:44:26.827Z,2.12
2022-12-01T07:46:55.114Z,2.16
2022-12-01T07:49:22.859Z,2.16
2022-12-01T07:51:50.535Z,2.16
2022-12-01T07:54:20.308Z,2.17
2022-12-01T07:56:48.162Z,2.19
2022-12-01T07:59:15.938Z,2.16
2022-12-01T08:01:45.479Z,2.17
2022-12-01T08:04:13.146Z,2.16
2022-12-01T08:06:40.952Z,2.16
2022-12-01T08:09:08.825Z,2.15
2022-12-01T08:11:36.724Z,2.15
2022-12-01T08:14:04.498Z,2.16
2022-12-01T08:16:32.343Z,2.19
2022-12-01T08:19:00.343Z,2.22
2022-12-01T08:21:30.441Z,2.27
2022-12-01T08:23:59.140Z,2.32
2022-12-01T08:26:27.666Z,2.36
2022-12-01T08:28:56.170Z,2.44
2022-12-01T08:31:35.936Z,2.52
2022-12-01T08:34:07.394Z,2.57
2022-12-01T08:36:36.007Z,2.63
2022-12-01T08:39:04.061Z,2.65
2022-12-01T08:41:32.119Z,2.65
2022-12-01T08:44:01.002Z,2.65
2022-12-01T08:46:33.401Z,2.61
2022-12-01T08:49:02.731Z,2.58
2022-12-01T08:51:31.193Z,2.59
2022-12-01T08:53:59.952Z,2.59
2022-12-01T08:56:31.470Z,2.59
2022-12-01T08:59:00.112Z,2.62
2022-12-01T09:01:28.285Z,2.62
2022-12-01T09:04:08.955Z,2.58
2022-12-01T09:06:45.540Z,2.55
2022-12-01T09:09:16.483Z,2.59
2022-12-01T09:11:45.335Z,2.60
2022-12-01T09:14:15.007Z,2.64
2022-12-01T09:16:44.443Z,2.64
2022-12-01T09:19:13.452Z,2.63
2022-12-01T09:21:43.532Z,2.66
2022-12-01T09:24:13.371Z,2.68
2022-12-01T09:26:42.790Z,2.68
2022-12-01T09:29:13.776Z,2.67
2022-12-01T09:31:42.753Z,2.69
2022-12-01T09:34:17.690Z,2.70
2022-12-01T09:36:46.922Z,2.72
2022-12-01T09:39:18.489Z,2.74
2022-12-01T09:41:54.446Z,2.77
2022-12-01T09:44:23.656Z,2.79
2022-12-01T09:47:10.748Z,2.80
2022-12-01T09:49:48.174Z,2.78
2022-12-01T09:52:19.315Z,2.79
2022-12-01T09:54:47.964Z,2.81
2022-12-01T09:57:29.956Z,2.86
2022-12-01T09:59:59.829Z,2.97
2022-12-01T10:02:42.654Z,3.02
2022-12-01T10:05:20.102Z,3.10
2022-12-01T10:08:05.661Z,3.15
2022-12-01T10:10:36.125Z,3.19
2022-12-01T10:13:16.636Z,3.24
2022-12-01T10:15:52.668Z,3.28
2022-12-01T10:18:53.710Z,3.32
2022-12-01T10:21:59.871Z,3.38
2022-12-01T10:24:49.084Z,3.45
2022-12-01T10:27:32.635Z,3.45
2022-12-01T10:30:16.280Z,3.43
2022-12-01T10:32:56.289Z,3.44
2022-12-01T10:35:36.357Z,3.43
2022-12-01T10:38:07.252Z,3.42
2022-12-01T10:40:35.400Z,3.43
2022-12-01T10:43:03.377Z,3.41
2022-12-01T10:45:37.276Z,3.41
2022-12-01T10:48:23.485Z,3.42
2022-12-01T10:50:54.155Z,3.46
2022-12-01T10:53:36.725Z,3.51
2022-12-01T10:56:17.103Z,3.59
2022-12-01T10:58:48.805Z,3.64
2022-12-01T11:01:32.018Z,3.66
2022-12-01T11:04:06.411Z,3.67
2022-12-01T11:06:37.001Z,3.64
2022-12-01T11:09:20.255Z,3.61
2022-12-01T11:12:01.647Z,3.57
2022-12-01T11:14:49.567Z,3.54
2022-12-01T11:17:41.226Z,3.51
2022-12-01T11:20:27.935Z,3.52
2022-12-01T11:23:20.560Z,3.51
2022-12-01T11:26:05.736Z,3.49
2022-12-01T11:28:36.504Z,3.47
2022-12-01T11:31:11.408Z,3.45
2022-12-01T11:33:50.936Z,3.46
2022-12-01T11:36:27.076Z,3.46
2022-12-01T11:39:04.772Z,3.46
2022-12-01T11:41:44.470Z,3.49
2022-12-01T11:44:49.781Z,3.52
2022-12-01T11:47:24.401Z,3.55
2022-12-01T11:50:06.903Z,3.56
2022-12-01T11:52:45.385Z,3.57
2022-12-01T11:55:16.921Z,3.58
2022-12-01T11:57:48.486Z,3.56
2022-12-01T12:00:20.657Z,3.58
2022-12-01T12:02:48.555Z,3.59
2022-12-01T12:05:46.343Z,3.55
2022-12-01T12:08:57.646Z,3.54
2022-12-01T12:12:15.453Z,3.53
2022-12-01T12:14:43.494Z,3.52
2022-12-01T12:17:33.473Z,3.53
2022-12-01T12:20:12.400Z,3.55
2022-12-01T12:22:59.403Z,3.55
2022-12-01T12:25:52.577Z,3.56
2022-12-01T12:28:23.276Z,3.53
2022-12-01T12:30:54.965Z,3.48
2022-12-01T12:33:55.713Z,3.47
2022-12-01T12:36:29.560Z,3.45
2022-12-01T12:39:28.558Z,3.42
2022-12-01T12:41:57.813Z,3.40
2022-12-01T12:44:43.852Z,3.35
2022-12-01T12:47:14.236Z,3.34
2022-12-01T12:50:06.228Z,3.33
2022-12-01T12:52:54.872Z,3.32
2022-12-01T12:55:28.558Z,3.33
2022-12-01T12:58:11.043Z,3.35
2022-12-01T13:00:56.391Z,3.39
2022-12-01T13:15:22.736Z,3.38
2022-12-01T13:56:46.326Z,3.09
2022-12-01T14:00:21.888Z,3.09
2022-12-01T14:06:47.196Z,3.06
2022-12-01T14:14:27.724Z,3.07
2022-12-01T14:28:29.304Z,3.02
2022-12-01T14:56:13.551Z,2.97
2022-12-01T15:07:23.393Z,2.84
2022-12-01T15:10:36.859Z,2.83
2022-12-01T15:13:30.860Z,2.85
2022-12-01T15:16:05.122Z,2.88
2022-12-01T15:18:36.732Z,2.92
2022-12-01T15:21:27.074Z,2.97
2022-12-01T15:23:54.995Z,2.97
2022-12-01T15:26:27.204Z,2.98
2022-12-01T15:29:38.620Z,3.00
2022-12-01T15:32:12.602Z,3.00
2022-12-01T15:34:43.922Z,3.00
2022-12-01T15:37:15.788Z,2.96
2022-12-01T15:39:47.429Z,2.97
2022-12-01T15:42:28.323Z,2.97
2022-12-01T15:45:22.032Z,2.97
2022-12-01T15:47:52.014Z,2.97
2022-12-01T15:50:31.075Z,2.97
2022-12-01T15:53:05.656Z,2.95
2022-12-01T15:55:36.632Z,2.96
2022-12-01T15:58:09.605Z,2.99
2022-12-01T16:00:37.748Z,2.98
2022-12-01T16:03:05.816Z,2.98
2022-12-01T16:05:36.129Z,2.99
2022-12-01T16:08:27.949Z,2.97
2022-12-01T16:11:17.421Z,2.93
2022-12-01T16:13:49.248Z,2.89
2022-12-01T16:16:42.116Z,2.85
2022-12-01T16:19:10.202Z,2.85
2022-12-01T16:21:52.202Z,2.86
2022-12-01T16:24:28.151Z,2.85
2022-12-01T16:26:59.049Z,2.84
2022-12-01T16:29:29.256Z,2.83
2022-12-01T16:32:25.920Z,2.84
2022-12-01T16:34:54.195Z,2.83
2022-12-01T16:37:23.151Z,2.85
2022-12-01T16:39:50.952Z,2.87
2022-12-01T16:42:21.280Z,2.90
2022-12-01T16:44:50.642Z,2.93
2022-12-01T16:47:21.830Z,2.95
2022-12-01T16:49:50.357Z,2.98
2022-12-01T16:55:28.202Z,3.01
2022-12-01T16:57:56.038Z,3.00
2022-12-01T17:00:24.238Z,2.99
2022-12-01T17:02:52.896Z,2.98
2022-12-01T17:05:21.305Z,2.95
2022-12-01T17:07:49.607Z,2.92
2022-12-01T17:10:17.976Z,2.91
2022-12-01T17:12:45.970Z,2.90
2022-12-01T17:15:15.461Z,2.90
2022-12-01T17:17:44.347Z,2.92
2022-12-01T17:20:12.905Z,2.94
2022-12-01T17:22:40.676Z,2.94
2022-12-01T17:25:12.308Z,2.93
2022-12-01T17:27:41.896Z,2.93
2022-12-01T17:30:10.881Z,2.94
2022-12-01T17:32:39.079Z,2.93
2022-12-01T17:35:07.537Z,2.92
2022-12-01T17:37:36.991Z,2.88
2022-12-01T17:40:05.671Z,2.84
2022-12-01T17:42:33.981Z,2.80
2022-12-01T17:45:02.265Z,2.79
2022-12-01T17:47:30.120Z,2.78
2022-12-01T17:49:58.000Z,2.77
2022-12-01T17:52:28.577Z,2.77
2022-12-01T17:54:56.842Z,2.72
2022-12-01T17:57:24.899Z,2.70
2022-12-01T17:59:52.687Z,2.67
2022-12-01T18:02:20.509Z,2.65
2022-12-01T18:04:48.671Z,2.63
2022-12-01T18:07:16.828Z,2.62
2022-12-01T18:09:44.887Z,2.62
2022-12-01T18:12:12.907Z,2.64
2022-12-01T18:14:40.828Z,2.65
2022-12-01T18:17:08.650Z,2.64
2022-12-01T18:19:36.627Z,2.65
2022-12-01T18:22:04.481Z,2.65
2022-12-01T18:24:32.458Z,2.66
2022-12-01T18:27:00.460Z,2.68
2022-12-01T18:29:28.920Z,2.68
2022-12-01T18:31:58.912Z,2.69
2022-12-01T18:34:29.482Z,2.68
2022-12-01T18:36:57.740Z,2.68
2022-12-01T18:39:25.555Z,2.66
2022-12-01T18:41:53.613Z,2.66
2022-12-01T18:44:21.537Z,2.65
2022-12-01T18:46:49.677Z,2.63
2022-12-01T18:49:17.639Z,2.64
2022-12-01T18:51:45.483Z,2.64
2022-12-01T18:54:14.898Z,2.65
2022-12-01T18:56:43.356Z,2.68
2022-12-01T18:59:13.979Z,2.68
2022-12-01T19:01:44.228Z,2.68
2022-12-01T19:04:14.150Z,2.70
2022-12-01T19:06:42.479Z,2.73
2022-12-01T19:09:12.626Z,2.74
2022-12-01T19:11:41.616Z,2.73
2022-12-01T19:14:16.139Z,2.73
2022-12-01T19:16:44.809Z,2.73
2022-12-01T19:19:12.744Z,2.74
2022-12-01T19:21:40.772Z,2.73
2022-12-01T19:24:08.897Z,2.72
2022-12-01T19:26:36.697Z,2.72
2022-12-01T19:29:04.463Z,2.73
2022-12-01T19:31:33.161Z,2.71
2022-12-01T19:34:04.405Z,2.67
2022-12-01T19:36:32.180Z,2.66
2022-12-01T19:39:02.610Z,2.64
2022-12-01T19:41:32.171Z,2.61
2022-12-01T19:43:59.967Z,2.59
2022-12-01T19:46:28.873Z,2.53
2022-12-01T19:49:02.954Z,2.47
2022-12-01T19:51:37.597Z,2.46
2022-12-01T19:54:08.577Z,2.48
2022-12-01T19:56:37.171Z,2.48
2022-12-01T19:59:07.731Z,2.49
2022-12-01T20:01:35.502Z,2.52
2022-12-01T20:04:04.494Z,2.54
2022-12-01T20:06:35.104Z,2.56
2022-12-01T20:09:05.866Z,2.57
2022-12-01T20:11:35.358Z,2.55
2022-12-01T20:14:04.944Z,2.55
2022-12-01T20:16:32.772Z,2.53
2022-12-01T20:19:03.071Z,2.51
2022-12-01T20:21:43.286Z,2.47
2022-12-01T20:24:14.041Z,2.46
2022-12-01T20:26:48.036Z,2.43
2022-12-01T20:29:22.689Z,2.38
2022-12-01T20:31:52.924Z,2.35
2022-12-01T20:34:25.921Z,2.31
2022-12-01T20:36:55.143Z,2.33
2022-12-01T20:39:23.592Z,2.33
2022-12-01T20:41:51.654Z,2.33
2022-12-01T20:44:19.923Z,2.35
2022-12-01T20:46:48.355Z,2.35
2022-12-01T20:49:17.493Z,2.34
2022-12-01T20:51:46.441Z,2.35
2022-12-01T20:54:31.289Z,2.30
2022-12-01T20:56:59.319Z,2.28
2022-12-01T20:59:28.606Z,2.28
2022-12-01T21:01:56.526Z,2.29
2022-12-01T21:04:24.481Z,2.27
2022-12-01T21:06:56.011Z,2.25
2022-12-01T21:09:24.142Z,2.23
2022-12-01T21:12:11.204Z,2.22
2022-12-01T21:14:47.441Z,2.24
2022-12-01T21:17:28.389Z,2.22
2022-12-01T21:20:05.164Z,2.21
2022-12-01T21:22:34.336Z,2.18
2022-12-01T21:25:15.395Z,2.16
2022-12-01T21:27:43.475Z,2.14
2022-12-01T21:30:18.811Z,2.14
2022-12-01T21:32:47.834Z,2.14
2022-12-01T21:35:17.730Z,2.16
2022-12-01T21:37:46.940Z,2.16
2022-12-01T21:40:23.866Z,2.14
2022-12-01T21:42:51.984Z,2.14
2022-12-01T21:45:32.090Z,2.14
2022-12-01T21:48:11.295Z,2.14
2022-12-01T21:50:39.149Z,2.15
2022-12-01T21:53:37.101Z,2.14
2022-12-01T21:56:05.092Z,2.09
2022-12-01T21:58:38.392Z,2.04
2022-12-01T22:01:35.774Z,2.03
2022-12-01T22:04:14.186Z,2.03
2022-12-01T22:06:46.450Z,2.02
2022-12-01T22:09:26.905Z,2.03
2022-12-01T22:11:57.365Z,2.04
2022-12-01T22:14:29.953Z,2.06
2022-12-01T22:17:21.338Z,2.08
2022-12-01T22:19:59.282Z,2.06
2022-12-01T22:22:30.364Z,2.02
2022-12-01T22:25:25.656Z,2.01
2022-12-01T22:27:54.512Z,2.00
2022-12-01T22:30:23.895Z,2.01
2022-12-01T22:33:03.804Z,2.02
2022-12-01T22:35:33.788Z,2.02
2022-12-01T22:38:08.900Z,2.02
2022-12-01T22:40:51.684Z,1.99
2022-12-01T22:43:24.705Z,1.99
2022-12-01T22:46:11.683Z,2.00
2022-12-01T22:48:43.149Z,2.00
2022-12-01T22:51:14.214Z,1.99
2022-12-01T22:53:44.043Z,1.98
2022-12-01T22:56:39.912Z,1.95
2022-12-01T22:59:15.867Z,1.94
2022-12-01T23:02:02.194Z,1.91
2022-12-01T23:04:39.911Z,1.88
2022-12-01T23:07:29.385Z,1.88
2022-12-01T23:10:01.177Z,1.87
2022-12-01T23:12:32.464Z,1.86
2022-12-01T23:15:24.993Z,1.84
2022-12-01T23:17:53.625Z,1.84
2022-12-01T23:20:34.243Z,1.84
2022-12-01T23:23:14.611Z,1.83
2022-12-01T23:25:44.105Z,1.82
2022-12-01T23:28:13.170Z,1.82
2022-12-01T23:30:43.747Z,1.83
2022-12-01T23:33:16.866Z,1.86
2022-12-01T23:35:48.677Z,1.84
2022-12-01T23:38:20.937Z,1.82
2022-12-01T23:40:50.231Z,1.78
2022-12-01T23:43:45.823Z,1.74
2022-12-01T23:46:20.730Z,1.74
2022-12-01T23:48:52.589Z,1.74
2022-12-01T23:51:25.687Z,1.74
2022-12-01T23:53:55.929Z,1.74
2022-12-01T23:56:26.587Z,1.73
2022-12-01T23:58:56.179Z,1.73
